createdAt,value
2022-08-03T00:01:27.809Z,46.00
2022-08-03T00:03:55.101Z,46.00
2022-08-03T00:06:21.937Z,47.20
2022-08-03T00:08:48.793Z,46.00
2022-08-03T00:11:15.769Z,46.00
2022-08-03T00:13:42.626Z,48.60
2022-08-03T00:16:15.219Z,46.40
2022-08-03T00:18:42.139Z,46.00
2022-08-03T00:21:09.295Z,46.00
2022-08-03T00:23:52.373Z,46.00
2022-08-03T00:26:21.463Z,48.00
2022-08-03T00:28:48.917Z,48.00
2022-08-03T00:31:16.074Z,47.20
2022-08-03T00:33:59.585Z,46.00
2022-08-03T00:36:29.837Z,46.00
2022-08-03T00:38:56.935Z,46.40
2022-08-03T00:41:23.830Z,46.00
2022-08-03T00:43:51.046Z,46.00
2022-08-03T00:46:21.636Z,45.80
2022-08-03T00:48:52.564Z,46.00
2022-08-03T00:51:21.792Z,46.00
2022-08-03T00:53:50.085Z,46.00
2022-08-03T00:56:18.153Z,46.40
2022-08-03T00:58:46.198Z,46.00
2022-08-03T01:01:13.769Z,50.80
2022-08-03T01:03:41.632Z,46.00
2022-08-03T01:06:20.304Z,46.00
2022-08-03T01:09:31.876Z,46.00
2022-08-03T01:12:15.726Z,46.00
2022-08-03T01:14:50.942Z,46.00
2022-08-03T01:17:30.289Z,46.40
2022-08-03T01:20:02.862Z,46.00
2022-08-03T01:22:29.625Z,46.00
2022-08-03T01:25:21.350Z,46.00
2022-08-03T01:27:57.233Z,46.00
2022-08-03T01:30:33.767Z,46.00
2022-08-03T01:33:15.749Z,46.00
2022-08-03T01:35:47.665Z,46.00
2022-08-03T01:38:36.316Z,46.00
2022-08-03T01:41:14.072Z,46.00
2022-08-03T01:43:55.446Z,46.00
2022-08-03T01:46:33.791Z,45.80
2022-08-03T01:49:08.984Z,46.00
2022-08-03T01:52:02.883Z,47.00
2022-08-03T01:54:26.589Z,48.00
2022-08-03T01:56:56.989Z,46.00
2022-08-03T01:59:26.593Z,49.80
2022-08-03T02:02:19.573Z,45.60
2022-08-03T02:04:44.192Z,46.00
2022-08-03T02:07:12.832Z,46.00
2022-08-03T02:09:41.756Z,48.00
2022-08-03T02:12:14.331Z,48.00
2022-08-03T02:14:43.992Z,46.00
2022-08-03T02:17:12.724Z,46.40
2022-08-03T02:19:40.865Z,46.00
2022-08-03T02:22:12.233Z,46.00
2022-08-03T02:24:39.395Z,45.80
2022-08-03T02:27:14.686Z,45.60
2022-08-03T02:29:44.783Z,45.00
2022-08-03T02:32:17.452Z,45.00
2022-08-03T02:34:49.115Z,45.20
2022-08-03T02:37:20.264Z,45.80
2022-08-03T02:39:49.349Z,47.00
2022-08-03T02:42:21.685Z,46.00
2022-08-03T02:44:51.746Z,46.00
2022-08-03T02:47:22.334Z,46.00
2022-08-03T02:49:52.351Z,45.40
2022-08-03T02:52:25.790Z,46.00
2022-08-03T02:54:55.270Z,45.80
2022-08-03T02:57:25.790Z,46.00
2022-08-03T02:59:53.629Z,46.00
2022-08-03T03:02:21.110Z,46.40
2022-08-03T03:04:58.112Z,46.00
2022-08-03T03:07:51.707Z,46.00
2022-08-03T03:10:24.108Z,46.00
2022-08-03T03:12:53.585Z,46.00
2022-08-03T03:15:20.751Z,45.40
2022-08-03T03:17:50.303Z,46.00
2022-08-03T03:20:29.096Z,46.40
2022-08-03T03:23:00.796Z,46.00
2022-08-03T03:25:30.993Z,46.00
2022-08-03T03:27:59.628Z,45.60
2022-08-03T03:30:27.569Z,45.00
2022-08-03T03:32:54.750Z,45.00
2022-08-03T03:35:22.235Z,46.00
2022-08-03T03:37:49.230Z,45.80
2022-08-03T03:40:16.072Z,46.00
2022-08-03T03:42:43.027Z,46.00
2022-08-03T03:45:10.469Z,45.00
2022-08-03T03:47:38.199Z,45.60
2022-08-03T03:50:06.709Z,46.00
2022-08-03T03:52:34.231Z,45.80
2022-08-03T03:55:01.858Z,46.00
2022-08-03T03:57:29.630Z,46.00
2022-08-03T03:59:56.549Z,45.00
2022-08-03T04:02:23.625Z,46.00
2022-08-03T04:05:09.039Z,45.40
2022-08-03T04:08:16.649Z,48.00
2022-08-03T04:11:01.329Z,46.00
2022-08-03T04:13:34.309Z,46.00
2022-08-03T04:16:02.340Z,45.20
2022-08-03T04:18:32.924Z,46.40
2022-08-03T04:21:04.030Z,46.00
2022-08-03T04:23:35.030Z,45.60
2022-08-03T04:26:10.157Z,46.00
2022-08-03T04:28:39.862Z,46.00
2022-08-03T04:31:07.510Z,46.00
2022-08-03T04:33:37.470Z,46.00
2022-08-03T04:36:09.154Z,45.00
2022-08-03T04:38:55.483Z,45.60
2022-08-03T04:41:26.101Z,45.20
2022-08-03T04:43:56.312Z,46.00
2022-08-03T04:46:27.189Z,45.60
2022-08-03T04:48:54.673Z,45.60
2022-08-03T04:51:22.029Z,46.00
2022-08-03T04:53:49.119Z,45.20
2022-08-03T04:56:16.550Z,45.60
2022-08-03T04:58:43.469Z,45.00
2022-08-03T05:01:10.651Z,45.00
2022-08-03T05:03:37.877Z,45.80
2022-08-03T05:06:09.679Z,46.00
2022-08-03T05:08:45.248Z,45.00
2022-08-03T05:11:14.719Z,45.00
2022-08-03T05:13:41.556Z,46.00
2022-08-03T05:16:08.388Z,45.00
2022-08-03T05:18:36.124Z,46.00
2022-08-03T05:21:03.031Z,46.00
2022-08-03T05:23:29.831Z,46.00
2022-08-03T05:25:57.074Z,45.20
2022-08-03T05:28:24.077Z,45.40
2022-08-03T05:30:50.989Z,45.80
2022-08-03T05:33:17.828Z,45.40
2022-08-03T05:36:02.561Z,45.00
2022-08-03T05:38:34.569Z,45.00
2022-08-03T05:41:22.765Z,45.80
2022-08-03T05:43:55.543Z,45.00
2022-08-03T05:46:23.464Z,45.80
2022-08-03T05:48:50.644Z,45.80
2022-08-03T05:51:17.602Z,46.00
2022-08-03T05:53:44.918Z,46.00
2022-08-03T05:56:14.103Z,46.00
2022-08-03T05:58:47.847Z,46.00
2022-08-03T06:01:17.045Z,46.00
2022-08-03T06:03:45.083Z,46.00
2022-08-03T06:06:12.271Z,46.00
2022-08-03T06:08:40.277Z,46.00
2022-08-03T06:11:07.400Z,46.00
2022-08-03T06:13:34.268Z,46.00
2022-08-03T06:16:01.109Z,46.00
2022-08-03T06:18:28.313Z,48.00
2022-08-03T06:20:55.433Z,46.00
2022-08-03T06:23:22.309Z,46.00
2022-08-03T06:25:49.832Z,46.00
2022-08-03T06:28:51.424Z,47.40
2022-08-03T06:31:07.030Z,48.00
2022-08-03T06:34:31.092Z,46.00
2022-08-03T06:36:20.862Z,46.40
2022-08-03T06:38:47.995Z,46.40
2022-08-03T06:41:15.022Z,48.00
2022-08-03T06:44:03.928Z,48.00
2022-08-03T06:46:29.429Z,46.40
2022-08-03T06:48:56.832Z,46.80
2022-08-03T06:52:04.185Z,46.00
2022-08-03T06:54:11.669Z,48.00
2022-08-03T06:56:38.511Z,48.00
2022-08-03T06:59:05.463Z,48.00
2022-08-03T07:01:32.270Z,48.80
2022-08-03T07:04:01.269Z,47.20
2022-08-03T07:06:28.109Z,48.60
2022-08-03T07:08:59.226Z,49.00
2022-08-03T07:11:26.794Z,48.00
2022-08-03T07:13:53.677Z,49.00
2022-08-03T07:16:20.704Z,49.00
2022-08-03T07:18:47.462Z,49.00
2022-08-03T07:21:16.872Z,49.00
2022-08-03T07:23:45.909Z,49.00
2022-08-03T07:26:15.743Z,49.00
2022-08-03T07:28:42.642Z,49.00
2022-08-03T07:31:10.542Z,49.00
2022-08-03T07:33:37.355Z,49.00
2022-08-03T07:36:04.676Z,50.20
2022-08-03T07:38:31.551Z,50.60
2022-08-03T07:40:58.465Z,49.00
2022-08-03T07:43:25.429Z,49.00
2022-08-03T07:45:52.273Z,49.40
2022-08-03T07:48:19.155Z,49.00
2022-08-03T07:50:47.202Z,51.20
2022-08-03T07:53:14.471Z,51.00
2022-08-03T07:55:41.343Z,50.20
2022-08-03T07:58:12.593Z,51.00
2022-08-03T08:00:39.833Z,51.00
2022-08-03T08:03:06.869Z,51.00
2022-08-03T08:05:34.796Z,50.60
2022-08-03T08:08:02.326Z,51.00
2022-08-03T08:10:29.342Z,49.00
2022-08-03T08:12:56.985Z,51.00
2022-08-03T08:15:24.464Z,51.00
2022-08-03T08:17:54.831Z,51.00
2022-08-03T08:20:30.765Z,51.00
2022-08-03T08:23:10.235Z,52.00
2022-08-03T08:25:53.192Z,51.00
2022-08-03T08:28:32.936Z,51.60
2022-08-03T08:31:01.479Z,52.00
2022-08-03T08:33:37.668Z,52.00
2022-08-03T08:36:14.809Z,51.60
2022-08-03T08:38:42.880Z,51.40
2022-08-03T08:41:11.343Z,51.80
2022-08-03T08:43:38.357Z,52.00
2022-08-03T08:46:09.990Z,52.00
2022-08-03T08:48:42.189Z,52.00
2022-08-03T08:51:10.911Z,52.00
2022-08-03T08:53:40.547Z,52.00
2022-08-03T08:56:10.510Z,51.80
2022-08-03T08:58:42.044Z,52.00
2022-08-03T09:01:09.273Z,52.00
2022-08-03T09:03:36.457Z,52.00
2022-08-03T09:06:03.930Z,52.00
2022-08-03T09:08:32.605Z,52.00
2022-08-03T09:11:00.110Z,52.00
2022-08-03T09:13:27.098Z,52.00
2022-08-03T09:16:13.015Z,52.00
2022-08-03T09:18:41.382Z,53.20
2022-08-03T09:21:35.506Z,53.20
2022-08-03T09:24:06.166Z,52.00
2022-08-03T09:26:36.623Z,52.00
2022-08-03T09:29:13.768Z,54.40
2022-08-03T09:31:46.289Z,52.00
2022-08-03T09:34:15.702Z,52.80
2022-08-03T09:36:51.011Z,53.60
2022-08-03T09:39:41.131Z,52.00
2022-08-03T09:42:18.405Z,52.00
2022-08-03T09:44:50.923Z,53.60
2022-08-03T09:47:45.078Z,52.00
2022-08-03T09:50:13.081Z,52.00
2022-08-03T09:52:49.677Z,54.00
2022-08-03T09:56:34.444Z,54.00
2022-08-03T09:58:10.935Z,57.20
2022-08-03T10:00:56.217Z,55.00
2022-08-03T10:03:24.856Z,55.00
2022-08-03T10:05:56.060Z,54.20
2022-08-03T10:08:26.231Z,52.40
2022-08-03T10:10:54.808Z,52.80
2022-08-03T10:13:23.010Z,54.00
2022-08-03T10:16:23.071Z,54.40
2022-08-03T10:18:40.644Z,56.60
2022-08-03T10:21:10.747Z,55.00
2022-08-03T10:23:39.772Z,55.00
2022-08-03T10:26:08.608Z,54.80
2022-08-03T10:28:44.508Z,55.00
2022-08-03T10:31:14.232Z,52.00
2022-08-03T10:33:52.789Z,54.00
2022-08-03T10:36:24.687Z,54.40
2022-08-03T13:43:16.851Z,61.40
2022-08-03T13:47:22.715Z,57.40
2022-08-03T14:09:19.686Z,56.40
2022-08-03T14:16:29.043Z,57.20
2022-08-03T14:19:53.324Z,60.40
2022-08-03T14:25:25.016Z,59.60
2022-08-03T14:27:58.165Z,59.00
2022-08-03T14:30:32.376Z,58.00
2022-08-03T14:33:07.700Z,57.80
2022-08-03T14:35:51.636Z,57.40
2022-08-03T14:38:45.319Z,57.40
2022-08-03T14:41:26.151Z,58.00
2022-08-03T14:44:16.849Z,57.80
2022-08-03T14:47:07.228Z,57.00
2022-08-03T14:50:31.187Z,58.00
2022-08-03T14:53:04.992Z,57.40
2022-08-03T14:56:27.830Z,58.00
2022-08-03T14:59:54.096Z,56.40
2022-08-03T15:02:33.062Z,55.00
2022-08-03T15:05:17.407Z,56.20
2022-08-03T15:08:21.726Z,58.00
2022-08-03T15:11:11.265Z,58.00
2022-08-03T15:18:00.280Z,57.40
2022-08-03T15:20:45.593Z,58.20
2022-08-03T15:23:24.849Z,59.40
2022-08-03T15:26:39.295Z,57.40
2022-08-03T15:30:05.989Z,57.40
2022-08-03T15:45:24.852Z,56.20
2022-08-03T15:48:26.465Z,57.40
2022-08-03T15:54:01.555Z,55.00
2022-08-03T15:57:14.575Z,55.00
2022-08-03T16:00:17.495Z,55.00
2022-08-03T16:02:50.181Z,55.00
2022-08-03T16:05:50.018Z,57.00
2022-08-03T16:11:48.113Z,55.00
2022-08-03T16:15:02.619Z,55.00
2022-08-03T16:17:29.617Z,54.60
2022-08-03T16:19:56.677Z,59.60
2022-08-03T16:22:25.058Z,55.00
2022-08-03T16:24:58.203Z,57.00
2022-08-03T16:27:56.517Z,56.40
2022-08-03T16:30:17.005Z,55.00
2022-08-03T16:32:49.570Z,57.00
2022-08-03T16:35:19.547Z,55.00
2022-08-03T16:37:59.110Z,56.60
2022-08-03T16:40:29.731Z,55.00
2022-08-03T16:43:01.654Z,54.60
2022-08-03T16:45:31.523Z,56.60
2022-08-03T16:48:06.011Z,55.00
2022-08-03T16:50:34.121Z,54.60
2022-08-03T16:53:03.705Z,55.80
2022-08-03T16:55:53.267Z,54.20
2022-08-03T16:58:41.275Z,54.60
2022-08-03T17:01:22.444Z,55.00
2022-08-03T17:04:04.724Z,54.40
2022-08-03T17:06:45.190Z,54.00
2022-08-03T17:09:18.143Z,54.60
2022-08-03T17:11:49.972Z,55.80
2022-08-03T17:14:28.481Z,58.00
2022-08-03T17:17:01.795Z,57.00
2022-08-03T17:19:39.545Z,57.20
2022-08-03T17:22:12.557Z,55.00
2022-08-03T17:24:52.836Z,57.60
2022-08-03T17:28:50.815Z,60.00
2022-08-03T17:30:19.029Z,62.00
2022-08-03T17:32:52.659Z,57.60
2022-08-03T17:35:39.303Z,57.20
2022-08-03T17:38:18.575Z,58.60
2022-08-03T17:40:52.305Z,59.00
2022-08-03T17:44:13.083Z,57.00
2022-08-03T17:46:12.332Z,59.60
2022-08-03T17:48:42.250Z,55.00
2022-08-03T17:51:21.067Z,55.80
2022-08-03T17:54:18.204Z,57.20
2022-08-03T17:56:48.603Z,55.40
2022-08-03T17:59:51.443Z,55.00
2022-08-03T18:06:10.768Z,58.00
2022-08-03T18:08:46.689Z,57.60
2022-08-03T18:11:24.338Z,57.00
2022-08-03T18:14:32.409Z,57.20
2022-08-03T18:17:10.356Z,57.00
2022-08-03T18:20:03.704Z,58.00
2022-08-03T18:22:36.500Z,58.60
2022-08-03T18:25:07.640Z,57.40
2022-08-03T18:30:32.666Z,58.00
2022-08-03T18:34:16.659Z,56.20
2022-08-03T18:36:17.503Z,55.40
2022-08-03T18:38:51.313Z,57.20
2022-08-03T18:41:32.961Z,55.00
2022-08-03T18:44:06.748Z,57.60
2022-08-03T18:47:07.472Z,56.60
2022-08-03T18:50:06.354Z,56.40
2022-08-03T18:52:53.209Z,55.00
2022-08-03T18:55:33.059Z,55.20
2022-08-03T18:58:18.154Z,54.20
2022-08-03T19:01:01.646Z,52.40
2022-08-03T19:03:41.610Z,53.60
2022-08-03T19:06:20.302Z,52.80
2022-08-03T19:08:57.693Z,53.20
2022-08-03T19:12:13.982Z,54.40
2022-08-03T19:14:41.616Z,52.80
2022-08-03T19:17:14.375Z,52.00
2022-08-03T19:19:53.842Z,54.60
2022-08-03T19:22:21.601Z,53.20
2022-08-03T19:24:55.305Z,52.00
2022-08-03T19:27:27.036Z,52.00
2022-08-03T19:30:04.487Z,53.80
2022-08-03T19:32:35.552Z,52.00
2022-08-03T19:35:18.702Z,52.00
2022-08-03T19:37:46.967Z,52.00
2022-08-03T19:40:14.222Z,52.60
2022-08-03T19:42:57.113Z,52.00
2022-08-03T19:46:05.199Z,54.20
2022-08-03T19:48:32.482Z,52.00
2022-08-03T19:51:02.922Z,52.00
2022-08-03T19:53:47.743Z,52.00
2022-08-03T19:56:23.093Z,52.00
2022-08-03T19:58:54.826Z,51.60
2022-08-03T20:01:25.801Z,52.00
2022-08-03T20:03:55.456Z,51.40
2022-08-03T20:06:24.717Z,51.80
2022-08-03T20:08:59.778Z,51.60
2022-08-03T20:11:29.468Z,51.40
2022-08-03T20:14:03.332Z,51.00
2022-08-03T20:16:30.300Z,51.80
2022-08-03T20:19:00.064Z,52.00
2022-08-03T20:21:31.676Z,51.00
2022-08-03T20:24:03.250Z,51.00
2022-08-03T20:26:55.548Z,51.80
2022-08-03T20:30:05.039Z,51.00
2022-08-03T20:32:34.522Z,51.00
2022-08-03T20:35:01.842Z,51.40
2022-08-03T20:37:29.876Z,51.00
2022-08-03T20:40:03.594Z,51.00
2022-08-03T20:42:31.301Z,51.20
2022-08-03T20:45:06.196Z,52.00
2022-08-03T20:47:50.620Z,51.00
2022-08-03T20:50:23.039Z,51.00
2022-08-03T20:52:50.586Z,51.00
2022-08-03T20:58:12.214Z,51.00
2022-08-03T21:00:41.306Z,51.00
2022-08-03T21:03:15.603Z,51.00
2022-08-03T21:05:55.290Z,51.00
2022-08-03T21:08:28.097Z,51.00
2022-08-03T21:11:02.618Z,50.20
2022-08-03T21:12:58.033Z,57.00
2022-08-03T21:13:05.401Z,57.60
2022-08-03T21:13:07.724Z,51.00
2022-08-03T21:13:46.799Z,51.00
2022-08-03T21:16:15.359Z,49.00
2022-08-03T21:18:52.974Z,51.00
2022-08-03T21:21:22.509Z,51.00
2022-08-03T21:23:55.210Z,51.00
2022-08-03T21:26:32.617Z,51.00
2022-08-03T21:29:02.650Z,50.60
2022-08-03T21:31:29.671Z,52.00
2022-08-03T21:34:04.310Z,49.80
2022-08-03T21:36:35.817Z,49.40
2022-08-03T21:39:14.434Z,49.80
2022-08-03T21:41:41.542Z,49.00
2022-08-03T21:44:09.039Z,51.00
2022-08-03T21:46:39.309Z,49.00
2022-08-03T21:50:07.810Z,49.00
2022-08-03T21:52:06.265Z,49.00
2022-08-03T21:54:37.162Z,49.00
2022-08-03T21:57:09.058Z,49.00
2022-08-03T21:59:41.604Z,49.00
2022-08-03T22:02:22.860Z,48.40
2022-08-03T22:04:56.424Z,49.00
2022-08-03T22:07:27.188Z,49.00
2022-08-03T22:09:59.372Z,50.60
2022-08-03T22:12:31.768Z,50.20
2022-08-03T22:15:02.007Z,49.00
2022-08-03T22:17:55.732Z,49.00
2022-08-03T22:20:25.731Z,54.80
2022-08-03T22:23:00.155Z,49.00
2022-08-03T22:25:30.927Z,49.00
2022-08-03T22:28:05.220Z,48.80
2022-08-03T22:30:35.278Z,49.00
2022-08-03T22:33:08.361Z,49.00
2022-08-03T22:35:48.281Z,50.00
2022-08-03T22:38:23.718Z,49.00
2022-08-03T22:40:55.081Z,49.00
2022-08-03T22:43:27.824Z,49.00
2022-08-03T22:46:11.253Z,49.00
2022-08-03T22:48:44.501Z,50.00
2022-08-03T22:51:11.669Z,49.00
2022-08-03T22:53:57.577Z,48.80
2022-08-03T22:56:50.583Z,48.40
2022-08-03T22:59:41.043Z,49.00
2022-08-03T23:02:30.522Z,49.00
2022-08-03T23:05:11.050Z,48.00
2022-08-03T23:08:25.016Z,49.00
2022-08-03T23:11:10.891Z,49.00
2022-08-03T23:13:45.954Z,49.40
2022-08-03T23:16:29.657Z,49.00
2022-08-03T23:19:16.547Z,51.00
2022-08-03T23:22:04.067Z,51.40
2022-08-03T23:24:53.457Z,51.00
2022-08-03T23:27:44.469Z,49.00
2022-08-03T23:30:31.323Z,50.20
2022-08-03T23:33:12.439Z,51.00
2022-08-03T23:36:28.492Z,51.00
2022-08-03T23:39:05.677Z,49.40
2022-08-03T23:41:59.694Z,49.00
2022-08-03T23:44:53.852Z,51.40
2022-08-03T23:47:46.223Z,50.20
2022-08-03T23:50:24.323Z,49.00
2022-08-03T23:53:01.449Z,49.00
2022-08-03T23:55:46.222Z,49.00
